createdAt,value
2022-12-12T00:00:42.490Z,78224.50
2022-12-12T00:03:09.247Z,78218.53
2022-12-12T00:05:36.103Z,78218.53
2022-12-12T00:08:02.531Z,78204.59
2022-12-12T00:10:29.392Z,78214.53
2022-12-12T00:12:55.776Z,78222.50
2022-12-12T00:15:22.163Z,78216.53
2022-12-12T00:17:48.527Z,78206.59
2022-12-12T00:20:15.026Z,78200.63
2022-12-12T00:22:41.408Z,78220.50
2022-12-12T00:25:08.428Z,78224.50
2022-12-12T00:27:34.877Z,78212.56
2022-12-12T00:30:01.349Z,78224.50
2022-12-12T00:32:27.954Z,78224.50
2022-12-12T00:34:54.353Z,78212.56
2022-12-12T00:37:20.709Z,78216.53
2022-12-12T00:39:47.086Z,78224.50
2022-12-12T00:42:13.765Z,78226.47
2022-12-12T00:44:40.803Z,78208.59
2022-12-12T00:47:07.371Z,78208.59
2022-12-12T00:49:33.970Z,78214.53
2022-12-12T00:52:00.345Z,78210.56
2022-12-12T00:54:26.701Z,78196.66
2022-12-12T00:56:53.123Z,78208.59
2022-12-12T00:59:19.779Z,78230.44
2022-12-12T01:01:46.953Z,78222.50
2022-12-12T01:04:13.451Z,78216.53
2022-12-12T01:06:40.050Z,78226.47
2022-12-12T01:09:06.502Z,78224.50
2022-12-12T01:11:32.930Z,78226.47
2022-12-12T01:13:59.358Z,78224.50
2022-12-12T01:16:26.236Z,78242.38
2022-12-12T01:18:52.891Z,78230.44
2022-12-12T01:21:20.404Z,78212.56
2022-12-12T01:23:46.996Z,78208.59
2022-12-12T01:26:19.648Z,78236.41
2022-12-12T01:28:46.596Z,78224.50
2022-12-12T01:31:13.529Z,78222.50
2022-12-12T01:33:40.974Z,78208.59
2022-12-12T01:36:07.575Z,78224.50
2022-12-12T01:38:34.007Z,78228.47
2022-12-12T01:41:00.454Z,78226.47
2022-12-12T01:43:28.841Z,78224.50
2022-12-12T01:46:30.550Z,78222.50
2022-12-12T01:49:03.550Z,78204.59
2022-12-12T01:51:30.831Z,78202.63
2022-12-12T01:54:03.144Z,78192.69
2022-12-12T01:56:29.926Z,78220.50
2022-12-12T01:58:57.430Z,78196.66
2022-12-12T02:01:24.770Z,78196.66
2022-12-12T02:03:51.384Z,78202.63
2022-12-12T02:06:22.550Z,78200.63
2022-12-12T02:08:51.160Z,78204.59
2022-12-12T02:11:17.580Z,78196.66
2022-12-12T02:13:44.306Z,78192.69
2022-12-12T02:16:23.066Z,78178.75
2022-12-12T02:18:54.717Z,78186.72
2022-12-12T02:21:24.385Z,78188.69
2022-12-12T02:24:05.839Z,78186.72
2022-12-12T02:26:47.731Z,78166.84
2022-12-12T02:29:28.864Z,78160.88
2022-12-12T02:32:12.882Z,78152.91
2022-12-12T02:34:59.421Z,78178.75
2022-12-12T02:37:34.858Z,78184.72
2022-12-12T02:40:20.289Z,78166.84
2022-12-12T02:42:55.669Z,78174.78
2022-12-12T02:50:48.868Z,78174.78
2022-12-12T02:53:23.276Z,78174.78
2022-12-12T02:55:50.483Z,78174.78
2022-12-12T02:58:19.636Z,78176.78
2022-12-12T03:01:11.162Z,78178.75
2022-12-12T03:04:11.624Z,78152.91
2022-12-12T03:07:25.840Z,78176.78
2022-12-12T03:10:04.427Z,78164.84
2022-12-12T03:12:40.671Z,78168.81
2022-12-12T03:15:26.139Z,78174.78
2022-12-12T03:18:06.120Z,78172.78
2022-12-12T03:20:56.783Z,78180.75
2022-12-12T03:23:28.981Z,78168.81
2022-12-12T03:26:03.862Z,78158.88
2022-12-12T03:28:39.592Z,78156.91
2022-12-12T03:31:09.887Z,78166.84
2022-12-12T03:33:45.412Z,78178.75
2022-12-12T03:36:23.245Z,78160.88
2022-12-12T03:38:58.918Z,78154.91
2022-12-12T03:41:31.732Z,78156.91
2022-12-12T03:44:03.957Z,78152.91
2022-12-12T03:46:38.692Z,78150.94
2022-12-12T03:49:13.513Z,78158.88
2022-12-12T03:51:45.865Z,78164.84
2022-12-12T03:54:30.756Z,78160.88
2022-12-12T03:57:10.419Z,78156.91
2022-12-12T03:59:42.060Z,78156.91
2022-12-12T04:02:18.439Z,78154.91
2022-12-12T04:05:20.148Z,78154.91
2022-12-12T04:07:53.616Z,78152.91
2022-12-12T04:10:42.283Z,78144.97
2022-12-12T04:13:23.497Z,78150.94
2022-12-12T04:16:01.503Z,78146.94
2022-12-12T04:18:44.416Z,78186.72
2022-12-12T04:21:51.920Z,78190.69
2022-12-12T04:24:42.760Z,78174.78
2022-12-12T04:27:26.013Z,78166.84
2022-12-12T04:30:02.709Z,78180.75
2022-12-12T04:32:58.791Z,78170.81
2022-12-12T04:35:33.462Z,78152.91
2022-12-12T04:38:26.126Z,78166.84
2022-12-12T04:40:58.507Z,78160.88
2022-12-12T04:43:37.001Z,78158.88
2022-12-12T04:46:15.819Z,78150.94
2022-12-12T04:48:48.412Z,78148.94
2022-12-12T04:51:24.408Z,78154.91
2022-12-12T04:54:03.514Z,78158.88
2022-12-12T04:56:34.097Z,78142.97
2022-12-12T04:59:00.625Z,78137.00
2022-12-12T05:02:02.541Z,78141.00
2022-12-12T05:04:37.205Z,78137.00
2022-12-12T05:07:15.324Z,78141.00
2022-12-12T05:09:42.754Z,78141.00
2022-12-12T05:12:09.517Z,78137.00
2022-12-12T05:14:36.360Z,78133.03
2022-12-12T05:17:09.548Z,78127.06
2022-12-12T05:19:36.036Z,78121.09
2022-12-12T05:22:02.804Z,78139.00
2022-12-12T05:24:31.194Z,78135.03
2022-12-12T05:26:59.175Z,78141.00
2022-12-12T05:29:25.838Z,78121.09
2022-12-12T05:31:52.235Z,78121.09
2022-12-12T05:34:18.779Z,78115.16
2022-12-12T05:36:45.223Z,78121.09
2022-12-12T05:39:11.620Z,78121.09
2022-12-12T05:41:38.017Z,78113.16
2022-12-12T05:44:04.390Z,78121.09
2022-12-12T05:46:30.837Z,78109.19
2022-12-12T05:48:57.324Z,78115.16
2022-12-12T05:51:23.750Z,78093.28
2022-12-12T05:53:50.159Z,78117.13
2022-12-12T05:56:16.651Z,78117.13
2022-12-12T05:58:43.513Z,78109.19
2022-12-12T06:01:10.298Z,78121.09
2022-12-12T06:03:36.989Z,78127.06
2022-12-12T06:06:03.886Z,78107.19
2022-12-12T06:08:30.305Z,78107.19
2022-12-12T06:10:56.821Z,78095.25
2022-12-12T06:13:23.283Z,78089.28
2022-12-12T06:15:49.953Z,78081.34
2022-12-12T06:18:16.342Z,78107.19
2022-12-12T06:20:42.732Z,78097.25
2022-12-12T06:23:09.143Z,78099.25
2022-12-12T06:25:35.680Z,78097.25
2022-12-12T06:28:02.090Z,78129.06
2022-12-12T06:30:28.464Z,78109.19
2022-12-12T06:32:54.889Z,78107.19
2022-12-12T06:35:21.253Z,78109.19
2022-12-12T06:37:48.504Z,78107.19
2022-12-12T06:40:15.828Z,78105.19
2022-12-12T06:42:48.047Z,78117.13
2022-12-12T06:45:15.492Z,78111.16
2022-12-12T06:47:42.168Z,78109.19
2022-12-12T06:50:09.051Z,78117.13
2022-12-12T06:52:35.481Z,78109.19
2022-12-12T06:55:02.112Z,78115.16
2022-12-12T06:57:28.582Z,78097.25
2022-12-12T06:59:54.983Z,78097.25
2022-12-12T07:02:27.731Z,78101.22
2022-12-12T07:04:56.289Z,78081.34
2022-12-12T07:07:22.942Z,78097.25
2022-12-12T07:09:49.457Z,78095.25
2022-12-12T07:12:15.917Z,78107.19
2022-12-12T07:14:42.269Z,78101.22
2022-12-12T07:17:08.620Z,78109.19
2022-12-12T07:19:35.587Z,78091.28
2022-12-12T07:22:09.104Z,78117.13
2022-12-12T07:24:36.475Z,78127.06
2022-12-12T07:27:03.756Z,78103.22
2022-12-12T07:29:30.143Z,78113.16
2022-12-12T07:31:56.526Z,78093.28
2022-12-12T07:34:22.930Z,78103.22
2022-12-12T07:36:49.315Z,78123.09
2022-12-12T07:39:20.680Z,78125.09
2022-12-12T07:41:47.474Z,78121.09
2022-12-12T07:44:13.855Z,78117.13
2022-12-12T07:46:40.403Z,78125.09
2022-12-12T07:49:06.865Z,78125.09
2022-12-12T07:51:33.319Z,78139.00
2022-12-12T07:53:59.737Z,78139.00
2022-12-12T07:56:26.111Z,78139.00
2022-12-12T07:58:53.471Z,78139.00
2022-12-12T08:01:22.749Z,78135.03
2022-12-12T08:03:50.505Z,78135.03
2022-12-12T08:06:20.126Z,78117.13
2022-12-12T08:08:48.367Z,78139.00
2022-12-12T08:11:18.422Z,78139.00
2022-12-12T08:13:44.896Z,78123.09
2022-12-12T08:16:19.725Z,78129.06
2022-12-12T08:18:46.655Z,78131.03
2022-12-12T08:21:17.571Z,78127.06
2022-12-12T08:23:47.835Z,78123.09
2022-12-12T08:26:16.743Z,78113.16
2022-12-12T08:28:45.406Z,78123.09
2022-12-12T08:31:16.660Z,78113.16
2022-12-12T08:33:43.153Z,78113.16
2022-12-12T08:36:18.904Z,78105.19
2022-12-12T08:38:45.515Z,78107.19
2022-12-12T08:41:12.934Z,78123.09
2022-12-12T08:43:40.583Z,78125.09
2022-12-12T08:46:12.330Z,78113.16
2022-12-12T08:48:42.220Z,78123.09
2022-12-12T08:51:10.181Z,78117.13
2022-12-12T08:53:36.591Z,78113.16
2022-12-12T08:56:03.057Z,78087.31
2022-12-12T08:58:29.478Z,78121.09
2022-12-12T09:00:56.596Z,78127.06
2022-12-12T09:03:29.023Z,78111.16
2022-12-12T09:05:56.033Z,78119.13
2022-12-12T09:08:22.448Z,78144.97
2022-12-12T09:10:50.414Z,78141.00
2022-12-12T09:13:17.144Z,78137.00
2022-12-12T09:15:43.556Z,78123.09
2022-12-12T09:18:10.008Z,78137.00
2022-12-12T09:20:36.373Z,78131.03
2022-12-12T09:23:02.787Z,78125.09
2022-12-12T09:25:29.192Z,78105.19
2022-12-12T09:27:55.605Z,78113.16
2022-12-12T09:30:22.207Z,78097.25
2022-12-12T09:32:50.214Z,78105.19
2022-12-12T09:35:16.770Z,78117.13
2022-12-12T09:37:43.177Z,78127.06
2022-12-12T09:40:17.552Z,78139.00
2022-12-12T09:42:49.211Z,78133.03
2022-12-12T09:45:15.997Z,78141.00
2022-12-12T09:47:46.439Z,78144.97
2022-12-12T09:50:16.806Z,78137.00
2022-12-12T09:52:44.572Z,78142.97
2022-12-12T09:55:50.261Z,78131.03
2022-12-12T09:58:26.928Z,78142.97
2022-12-12T10:01:04.935Z,78141.00
2022-12-12T10:04:00.637Z,78148.94
2022-12-12T10:06:37.478Z,78137.00
2022-12-12T10:09:16.933Z,78146.94
2022-12-12T10:11:54.567Z,78148.94
2022-12-12T10:14:42.113Z,78142.97
2022-12-12T10:17:17.035Z,78156.91
2022-12-12T10:19:48.998Z,78144.97
2022-12-12T10:22:24.544Z,78172.78
2022-12-12T10:25:03.207Z,78158.88
2022-12-12T10:27:29.813Z,78148.94
2022-12-12T10:30:00.444Z,78168.81
2022-12-12T10:32:49.687Z,78152.91
2022-12-12T10:35:51.891Z,78168.81
2022-12-12T10:38:43.980Z,78166.84
2022-12-12T10:41:24.591Z,78135.03
2022-12-12T10:44:25.747Z,78141.00
2022-12-12T10:47:00.897Z,78148.94
2022-12-12T10:49:27.408Z,78162.84
2022-12-12T10:51:55.664Z,78172.78
2022-12-12T10:54:27.489Z,78158.88
2022-12-12T10:57:20.200Z,78150.94
2022-12-12T10:59:49.630Z,78166.84
2022-12-12T11:02:36.124Z,78180.75
2022-12-12T11:05:10.735Z,78184.72
2022-12-12T11:07:39.876Z,78206.59
2022-12-12T11:10:34.841Z,78204.59
2022-12-12T11:13:10.416Z,78218.53
2022-12-12T11:15:51.639Z,78234.44
2022-12-12T11:18:22.225Z,78220.50
2022-12-12T11:21:01.943Z,78230.44
2022-12-12T11:23:30.224Z,78228.47
2022-12-12T11:25:58.718Z,78228.47
2022-12-12T11:28:27.747Z,78228.47
2022-12-12T11:30:56.444Z,78212.56
2022-12-12T11:33:31.471Z,78192.69
2022-12-12T11:35:59.276Z,78186.72
2022-12-12T11:38:37.596Z,78186.72
2022-12-12T11:41:11.335Z,78184.72
2022-12-12T11:44:00.253Z,78174.78
2022-12-12T11:46:30.993Z,78192.69
2022-12-12T11:49:03.803Z,78204.59
2022-12-12T11:51:40.292Z,78200.63
2022-12-12T11:54:16.194Z,78204.59
2022-12-12T11:57:06.408Z,78208.59
2022-12-12T11:59:46.085Z,78204.59
2022-12-12T12:02:48.977Z,78200.63
2022-12-12T12:05:24.469Z,78196.66
2022-12-12T12:08:23.377Z,78202.63
2022-12-12T12:11:02.083Z,78196.66
2022-12-12T12:13:46.949Z,78202.63
2022-12-12T12:16:26.450Z,78202.63
2022-12-12T12:19:08.025Z,78198.66
2022-12-12T12:21:44.940Z,78192.69
2022-12-12T12:24:43.649Z,78190.69
2022-12-12T12:27:16.526Z,78194.66
2022-12-12T12:30:14.099Z,78180.75
2022-12-12T12:32:46.512Z,78168.81
2022-12-12T12:35:43.764Z,78166.84
2022-12-12T12:38:19.694Z,78174.78
2022-12-12T12:41:12.134Z,78190.69
2022-12-12T12:43:53.452Z,78212.56
2022-12-12T12:47:08.147Z,78212.56
2022-12-12T12:50:20.037Z,78210.56
2022-12-12T12:53:05.877Z,78230.44
2022-12-12T12:55:40.625Z,78248.34
2022-12-12T12:58:32.357Z,78252.31
2022-12-12T13:01:05.140Z,78260.28
2022-12-12T13:03:40.585Z,78268.22
2022-12-12T13:06:16.393Z,78274.19
2022-12-12T13:09:01.672Z,78288.09
2022-12-12T13:11:41.827Z,78290.09
2022-12-12T13:14:30.412Z,78292.09
2022-12-12T13:17:06.236Z,78290.09
2022-12-12T13:19:46.706Z,78333.84
2022-12-12T13:22:13.012Z,78304.00
2022-12-12T13:24:56.479Z,78337.81
2022-12-12T13:27:45.891Z,78335.81
2022-12-12T13:30:24.061Z,78373.59
2022-12-12T13:33:04.837Z,78357.69
2022-12-12T13:35:35.603Z,78381.56
2022-12-12T13:38:03.164Z,78363.66
2022-12-12T13:40:32.728Z,78361.66
2022-12-12T13:43:09.869Z,78373.59
2022-12-12T13:45:40.590Z,78371.63
2022-12-12T13:48:28.321Z,78377.56
2022-12-12T13:51:30.286Z,78357.69
2022-12-12T13:54:13.185Z,78389.50
2022-12-12T13:56:44.977Z,78373.59
2022-12-12T13:59:23.628Z,78371.63
2022-12-12T14:01:55.385Z,78387.53
2022-12-12T14:04:37.441Z,78363.66
2022-12-12T14:07:13.015Z,78359.69
2022-12-12T14:09:48.706Z,78375.59
2022-12-12T14:12:30.729Z,78373.59
2022-12-12T14:15:01.705Z,78363.66
2022-12-12T14:17:35.490Z,78377.56
2022-12-12T14:20:07.372Z,78365.66
2022-12-12T14:22:37.232Z,78353.72
2022-12-12T14:25:17.236Z,78351.72
2022-12-12T14:27:49.709Z,78347.75
2022-12-12T14:30:25.349Z,78365.66
2022-12-12T14:33:20.968Z,78379.56
2022-12-12T14:35:58.765Z,78377.56
2022-12-12T14:38:50.719Z,78389.50
2022-12-12T14:41:22.881Z,78385.53
2022-12-12T14:44:37.938Z,78379.56
2022-12-12T14:46:44.015Z,78371.63
2022-12-12T14:49:16.246Z,78395.47
2022-12-12T14:51:51.052Z,78379.56
2022-12-12T14:54:20.664Z,78391.50
2022-12-12T14:56:53.357Z,78397.47
2022-12-12T14:59:25.148Z,78411.38
2022-12-12T15:01:55.365Z,78417.34
2022-12-12T15:04:29.240Z,78425.28
2022-12-12T15:07:02.819Z,78419.31
2022-12-12T15:09:42.110Z,78423.31
2022-12-12T15:12:15.148Z,78439.22
2022-12-12T15:14:56.202Z,78453.13
2022-12-12T15:17:29.984Z,78459.09
2022-12-12T15:19:59.599Z,78445.19
2022-12-12T15:22:31.161Z,78469.03
2022-12-12T15:25:00.436Z,78467.06
2022-12-12T15:27:35.587Z,78455.13
2022-12-12T15:30:12.580Z,78469.03
2022-12-12T15:32:39.426Z,78457.09
2022-12-12T15:35:08.820Z,78467.06
2022-12-12T15:37:37.643Z,78459.09
2022-12-12T15:40:09.294Z,78473.00
2022-12-12T15:42:37.900Z,78455.13
2022-12-12T15:45:06.151Z,78475.00
2022-12-12T15:47:33.715Z,78482.94
2022-12-12T15:50:15.399Z,78473.00
2022-12-12T15:52:42.232Z,78467.06
2022-12-12T15:55:22.473Z,78475.00
2022-12-12T15:57:51.945Z,78459.09
2022-12-12T16:00:36.800Z,78475.00
2022-12-12T16:03:18.252Z,78475.00
2022-12-12T16:05:44.835Z,78480.97
2022-12-12T16:08:44.798Z,78494.88
2022-12-12T16:11:43.821Z,78490.91
2022-12-12T16:14:40.753Z,78477.00
2022-12-12T16:17:19.876Z,78510.78
2022-12-12T16:19:55.276Z,78504.81
2022-12-12T16:22:32.490Z,78488.91
2022-12-12T16:25:11.182Z,78502.84
2022-12-12T16:27:37.665Z,78496.88
2022-12-12T16:30:05.275Z,78500.84
2022-12-12T16:32:31.673Z,78488.91
2022-12-12T16:34:58.031Z,78506.81
2022-12-12T16:37:24.467Z,78510.78
2022-12-12T16:39:50.921Z,78510.78
2022-12-12T16:42:19.731Z,78518.75
2022-12-12T16:44:46.610Z,78524.72
2022-12-12T16:47:22.941Z,78536.63
2022-12-12T16:49:49.645Z,78538.63
2022-12-12T16:52:18.999Z,78546.59
2022-12-12T16:54:52.881Z,78556.53
2022-12-12T16:57:21.529Z,78534.66
2022-12-12T16:59:48.006Z,78548.56
2022-12-12T17:02:20.637Z,78542.59
2022-12-12T17:04:48.335Z,78538.63
2022-12-12T17:07:15.151Z,78534.66
2022-12-12T17:09:41.796Z,78538.63
2022-12-12T17:12:09.209Z,78528.69
2022-12-12T17:14:36.009Z,78522.72
2022-12-12T17:17:05.268Z,78542.59
2022-12-12T17:19:32.057Z,78550.56
2022-12-12T17:21:58.512Z,78554.53
2022-12-12T17:24:24.875Z,78550.56
2022-12-12T17:26:51.288Z,78550.56
2022-12-12T17:29:17.680Z,78542.59
2022-12-12T17:31:44.553Z,78550.56
2022-12-12T17:34:11.193Z,78538.63
2022-12-12T17:36:37.885Z,78532.66
2022-12-12T17:39:04.975Z,78524.72
2022-12-12T17:41:31.388Z,78538.63
2022-12-12T17:43:58.716Z,78538.63
2022-12-12T17:46:26.629Z,78528.69
2022-12-12T17:48:53.625Z,78524.72
2022-12-12T17:51:23.889Z,78534.66
2022-12-12T17:53:52.400Z,78532.66
2022-12-12T17:56:22.388Z,78546.59
2022-12-12T17:58:50.193Z,78540.63
2022-12-12T18:01:24.423Z,78548.56
2022-12-12T18:03:51.824Z,78548.56
2022-12-12T18:06:20.032Z,78544.59
2022-12-12T18:08:47.624Z,78544.59
2022-12-12T18:11:17.594Z,78546.59
2022-12-12T18:13:45.416Z,78568.44
2022-12-12T18:16:13.153Z,78572.44
2022-12-12T18:18:40.351Z,78572.44
2022-12-12T18:21:12.908Z,78576.41
2022-12-12T18:23:42.462Z,78592.31
2022-12-12T18:26:20.149Z,78596.28
2022-12-12T18:28:56.878Z,78596.28
2022-12-12T18:31:23.381Z,78596.28
2022-12-12T18:33:50.056Z,78600.25
2022-12-12T18:36:18.772Z,78606.22
2022-12-12T18:38:48.044Z,78608.22
2022-12-12T18:41:15.460Z,78604.25
2022-12-12T18:43:42.208Z,78604.25
2022-12-12T18:46:17.064Z,78608.22
2022-12-12T18:48:45.332Z,78608.22
2022-12-12T18:51:14.421Z,78618.16
2022-12-12T18:53:41.484Z,78618.16
2022-12-12T18:56:15.062Z,78616.16
2022-12-12T18:58:41.445Z,78606.22
2022-12-12T19:01:10.760Z,78600.25
2022-12-12T19:03:39.248Z,78594.31
2022-12-12T19:06:08.087Z,78590.31
2022-12-12T19:08:35.154Z,78588.34
2022-12-12T19:11:02.271Z,78582.38
2022-12-12T19:13:29.048Z,78596.28
2022-12-12T19:15:55.428Z,78596.28
2022-12-12T19:18:22.060Z,78586.34
2022-12-12T19:20:49.802Z,78608.22
2022-12-12T19:23:16.288Z,78606.22
2022-12-12T19:25:43.289Z,78612.19
2022-12-12T19:28:11.412Z,78624.13
2022-12-12T19:30:41.248Z,78634.06
2022-12-12T19:33:07.746Z,78653.94
2022-12-12T19:35:37.913Z,78646.00
2022-12-12T19:38:04.347Z,78647.97
2022-12-12T19:40:30.773Z,78651.97
2022-12-12T19:42:57.316Z,78649.97
2022-12-12T19:45:23.726Z,78653.94
2022-12-12T19:47:50.146Z,78669.84
2022-12-12T19:50:16.916Z,78665.88
2022-12-12T19:52:43.466Z,78673.84
2022-12-12T19:55:09.998Z,78673.84
2022-12-12T19:57:36.494Z,78679.81
2022-12-12T20:00:03.916Z,78681.78
2022-12-12T20:02:30.304Z,78683.78
2022-12-12T20:04:56.719Z,78697.69
2022-12-12T20:07:23.072Z,78701.66
2022-12-12T20:09:49.447Z,78689.75
2022-12-12T20:12:15.871Z,78695.72
2022-12-12T20:14:42.249Z,78699.69
2022-12-12T20:17:08.662Z,78685.75
2022-12-12T20:19:35.129Z,78709.63
2022-12-12T20:22:02.753Z,78713.59
2022-12-12T20:24:32.002Z,78727.53
2022-12-12T20:26:59.746Z,78725.53
2022-12-12T20:29:26.371Z,78721.56
2022-12-12T20:31:52.746Z,78733.50
2022-12-12T20:34:24.672Z,78735.47
2022-12-12T20:36:51.644Z,78745.41
2022-12-12T20:39:22.238Z,78741.44
2022-12-12T20:41:50.374Z,78735.47
2022-12-12T20:44:17.379Z,78745.41
2022-12-12T20:46:45.512Z,78737.47
2022-12-12T20:49:18.255Z,78751.38
2022-12-12T20:52:00.960Z,78755.34
2022-12-12T20:54:28.879Z,78749.41
2022-12-12T20:56:56.494Z,78771.28
2022-12-12T20:59:24.062Z,78753.38
2022-12-12T21:01:51.309Z,78777.22
2022-12-12T21:04:17.768Z,78779.22
2022-12-12T21:06:48.536Z,78771.28
2022-12-12T21:09:22.691Z,78783.19
2022-12-12T21:11:52.085Z,78777.22
2022-12-12T21:14:18.625Z,78773.25
2022-12-12T21:16:45.321Z,78771.28
2022-12-12T21:19:13.623Z,78753.38
2022-12-12T21:21:41.591Z,78761.31
2022-12-12T21:24:09.789Z,78741.44
2022-12-12T21:26:36.178Z,78727.53
2022-12-12T21:29:03.605Z,78705.66
2022-12-12T21:31:33.613Z,78681.78
2022-12-12T21:34:00.348Z,78673.84
2022-12-12T21:36:28.215Z,78646.00
2022-12-12T21:38:56.520Z,78634.06
2022-12-12T21:41:23.453Z,78636.06
2022-12-12T21:43:50.767Z,78624.13
2022-12-12T21:46:19.774Z,78626.13
2022-12-12T21:48:47.139Z,78622.13
2022-12-12T21:51:15.770Z,78620.16
2022-12-12T21:53:43.211Z,78606.22
2022-12-12T21:56:15.909Z,78612.19
2022-12-12T21:58:44.567Z,78614.19
2022-12-12T22:01:13.777Z,78598.28
2022-12-12T22:03:40.677Z,78596.28
2022-12-12T22:06:15.955Z,78584.34
2022-12-12T22:08:43.283Z,78592.31
2022-12-12T22:11:10.738Z,78588.34
2022-12-12T22:13:40.245Z,78594.31
2022-12-12T22:16:15.181Z,78590.31
2022-12-12T22:18:41.799Z,78580.38
2022-12-12T22:21:11.857Z,78576.41
2022-12-12T22:23:39.298Z,78588.34
2022-12-12T22:26:32.106Z,78586.34
2022-12-12T22:29:01.827Z,78602.25
2022-12-12T22:31:30.648Z,78604.25
2022-12-12T22:34:00.331Z,78610.22
2022-12-12T22:36:29.316Z,78588.34
2022-12-12T22:38:57.165Z,78596.28
2022-12-12T22:41:24.172Z,78604.25
2022-12-12T22:43:55.738Z,78596.28
2022-12-12T22:46:25.091Z,78596.28
2022-12-12T22:48:53.337Z,78602.25
2022-12-12T22:51:23.517Z,78594.31
2022-12-12T22:53:50.212Z,78590.31
2022-12-12T22:56:16.975Z,78588.34
2022-12-12T22:58:43.857Z,78590.31
2022-12-12T23:01:16.084Z,78572.44
2022-12-12T23:03:43.315Z,78570.44
2022-12-12T23:06:14.456Z,78560.50
2022-12-12T23:08:42.298Z,78558.50
2022-12-12T23:11:14.876Z,78566.47
2022-12-12T23:13:44.279Z,78568.44
2022-12-12T23:16:19.511Z,78576.41
2022-12-12T23:18:47.685Z,78586.34
2022-12-12T23:21:17.570Z,78588.34
2022-12-12T23:23:44.805Z,78578.41
2022-12-12T23:26:17.489Z,78582.38
2022-12-12T23:28:44.968Z,78586.34
2022-12-12T23:31:15.534Z,78582.38
2022-12-12T23:33:42.319Z,78596.28
2022-12-12T23:36:10.459Z,78610.22
2022-12-12T23:38:37.467Z,78622.13
2022-12-12T23:41:12.944Z,78606.22
2022-12-12T23:43:40.105Z,78594.31
2022-12-12T23:46:28.031Z,78588.34
2022-12-12T23:49:05.680Z,78590.31
2022-12-12T23:51:37.908Z,78588.34
2022-12-12T23:54:07.556Z,78584.34
2022-12-12T23:56:34.049Z,78586.34
2022-12-12T23:59:01.007Z,78592.31
